createdAt,value
2022-09-04T00:01:57.888Z,11.92
2022-09-04T00:13:57.841Z,11.90
2022-09-04T00:25:58.754Z,11.90
2022-09-04T00:37:57.865Z,11.88
2022-09-04T00:49:57.896Z,11.86
2022-09-04T01:01:58.037Z,11.86
2022-09-04T01:13:57.855Z,11.84
2022-09-04T01:25:57.890Z,11.83
2022-09-04T01:37:57.860Z,11.82
2022-09-04T01:49:58.326Z,11.80
2022-09-04T02:01:57.954Z,11.79
2022-09-04T02:13:57.851Z,11.78
2022-09-04T02:25:57.872Z,11.77
2022-09-04T02:37:57.870Z,11.75
2022-09-04T02:49:57.879Z,11.74
2022-09-04T03:01:57.983Z,11.73
2022-09-04T03:13:57.900Z,11.72
2022-09-04T03:25:57.836Z,11.70
2022-09-04T03:37:57.868Z,11.69
2022-09-04T03:49:57.891Z,11.68
2022-09-04T04:01:57.862Z,11.67
2022-09-04T04:13:57.869Z,11.65
2022-09-04T04:25:57.849Z,11.64
2022-09-04T04:37:57.864Z,11.62
2022-09-04T04:49:58.869Z,11.61
2022-09-04T05:01:57.903Z,11.61
2022-09-04T05:13:57.872Z,11.60
2022-09-04T05:25:57.874Z,11.59
2022-09-04T05:37:57.869Z,11.58
2022-09-04T05:49:58.006Z,11.58
2022-09-04T06:01:58.286Z,11.58
2022-09-04T06:13:58.421Z,11.58
2022-09-04T06:25:58.561Z,11.57
2022-09-04T06:37:58.307Z,11.58
2022-09-04T06:49:57.954Z,11.58
2022-09-04T07:01:57.979Z,11.58
2022-09-04T07:13:57.873Z,11.59
2022-09-04T07:25:57.877Z,11.60
2022-09-04T07:37:57.869Z,11.61
2022-09-04T07:49:57.867Z,11.65
2022-09-04T08:01:57.863Z,11.66
2022-09-04T08:13:57.854Z,11.73
2022-09-04T08:25:57.886Z,11.75
2022-09-04T08:37:57.873Z,11.85
2022-09-04T08:49:57.868Z,11.93
2022-09-04T09:01:57.856Z,12.07
2022-09-04T09:14:01.806Z,12.36
2022-09-04T09:25:57.883Z,12.50
2022-09-04T09:38:02.361Z,12.58
2022-09-04T09:49:57.867Z,12.59
2022-09-04T10:01:58.383Z,12.60
2022-09-04T10:13:57.916Z,12.60
2022-09-04T10:25:57.863Z,12.61
2022-09-04T10:37:57.855Z,12.60
2022-09-04T10:49:57.873Z,12.60
2022-09-04T11:01:57.864Z,12.60
2022-09-04T11:13:57.877Z,12.61
2022-09-04T11:25:57.856Z,12.61
2022-09-04T11:37:58.057Z,12.61
2022-09-04T11:49:57.862Z,12.61
2022-09-04T12:01:57.914Z,12.59
2022-09-04T12:13:57.871Z,12.61
2022-09-04T12:25:57.881Z,12.61
2022-09-04T12:37:57.849Z,12.61
2022-09-04T12:49:57.881Z,12.61
2022-09-04T13:01:57.932Z,12.61
2022-09-04T13:13:57.898Z,12.61
2022-09-04T13:25:57.876Z,12.61
2022-09-04T13:37:57.864Z,12.61
2022-09-04T13:49:57.905Z,12.61
2022-09-04T14:01:57.839Z,12.61
2022-09-04T14:13:57.878Z,12.61
2022-09-04T14:25:57.874Z,12.61
2022-09-04T14:37:57.868Z,12.61
2022-09-04T14:49:57.874Z,12.61
2022-09-04T15:01:57.909Z,12.61
2022-09-04T15:13:57.937Z,12.61
2022-09-04T15:25:59.484Z,12.61
2022-09-04T15:38:00.317Z,12.61
2022-09-04T15:49:57.886Z,12.61
2022-09-04T16:01:57.875Z,12.61
2022-09-04T16:13:58.443Z,12.61
2022-09-04T16:25:57.879Z,12.59
2022-09-04T16:37:57.875Z,12.59
2022-09-04T16:49:57.955Z,12.57
2022-09-04T17:01:57.926Z,12.56
2022-09-04T17:13:57.830Z,12.54
2022-09-04T17:29:12.274Z,12.53
2022-09-04T17:40:51.768Z,12.51
2022-09-04T17:49:58.222Z,12.49
2022-09-04T18:01:57.878Z,12.48
2022-09-04T18:13:57.857Z,12.46
2022-09-04T18:25:57.859Z,12.44
2022-09-04T18:37:57.945Z,12.43
2022-09-04T18:50:46.763Z,12.40
2022-09-04T19:01:58.116Z,12.39
2022-09-04T19:14:06.354Z,12.37
2022-09-04T19:25:57.888Z,12.36
2022-09-04T19:39:23.097Z,12.35
2022-09-04T19:53:18.426Z,12.33
2022-09-04T20:02:03.080Z,12.32
2022-09-04T20:13:57.874Z,12.30
2022-09-04T20:25:57.862Z,12.28
2022-09-04T20:37:57.821Z,12.27
2022-09-04T20:52:51.713Z,12.25
2022-09-04T21:03:10.003Z,12.24
2022-09-04T21:13:57.874Z,12.22
2022-09-04T21:25:57.911Z,12.20
2022-09-04T21:37:57.872Z,12.20
2022-09-04T21:49:57.961Z,12.18
2022-09-04T22:02:43.256Z,12.17
2022-09-04T22:14:00.082Z,12.15
2022-09-04T22:26:09.209Z,12.14
2022-09-04T22:37:58.171Z,12.13
2022-09-04T22:49:57.886Z,12.11
2022-09-04T23:02:00.119Z,12.10
2022-09-04T23:14:06.596Z,12.08
2022-09-04T23:26:53.590Z,12.07
2022-09-04T23:38:00.400Z,12.06
2022-09-04T23:49:58.669Z,12.04
